Time;durP1;ratioP1;P1;durP2;ratioP2;P2;SDS_P1;SDS_P2;PMS_P1;PMS_P2;Temp;Humidity;BMP_temperature;BMP_pressure;BME280_temperature;BME280_humidity;BME280_pressure;Samples;Min_cycle;Max_cycle;Signal;HPM_P1;HPM_P2
2022/12/05 00:01:34;;;;;;;12.30;8.27;;;;;;;4.14;100.00;101095.22;4886565;29;20043;-89
2022/12/05 00:04:07;;;;;;;12.82;8.73;;;;;;;4.15;100.00;101091.66;4896878;29;20101;-89
2022/12/05 00:06:39;;;;;;;12.75;7.95;;;;;;;4.15;100.00;101100.38;4897773;29;20690;-89
2022/12/05 00:09:09;;;;;;;16.40;8.35;;;;;;;4.14;100.00;101096.06;4888289;29;20047;-89
2022/12/05 00:11:38;;;;;;;16.15;8.43;;;;;;;4.12;100.00;101094.47;4890364;29;20044;-89
2022/12/05 00:14:08;;;;;;;11.07;8.23;;;;;;;4.11;100.00;101101.47;4898659;29;20044;-87
2022/12/05 00:16:37;;;;;;;11.65;7.57;;;;;;;4.12;100.00;101105.78;4883170;29;20036;-90
2022/12/05 00:19:07;;;;;;;10.32;6.65;;;;;;;4.13;100.00;101104.84;4892660;29;20159;-89
2022/12/05 00:21:36;;;;;;;10.68;7.43;;;;;;;4.11;100.00;101105.88;4886500;29;20036;-89
2022/12/05 00:24:06;;;;;;;9.20;5.32;;;;;;;4.11;100.00;101103.25;4896817;29;20397;-88
2022/12/05 00:26:35;;;;;;;10.52;7.35;;;;;;;4.08;100.00;101110.34;4912612;29;20103;-89
2022/12/05 00:29:03;;;;;;;11.70;7.15;;;;;;;4.10;100.00;101118.09;4906185;29;20397;-89
2022/12/05 00:31:31;;;;;;;12.70;7.93;;;;;;;4.09;100.00;101113.81;4880549;29;20032;-89
2022/12/05 00:34:02;;;;;;;9.68;6.88;;;;;;;4.09;100.00;101116.41;4895778;29;20128;-90
2022/12/05 00:36:34;;;;;;;10.70;6.07;;;;;;;4.09;100.00;101108.56;4873199;29;20044;-89
2022/12/05 00:39:13;;;;;;;10.20;6.22;;;;;;;4.09;100.00;101112.00;4896257;29;20503;-88
2022/12/05 00:41:43;;;;;;;7.88;6.25;;;;;;;4.10;100.00;101112.84;4892875;29;20545;-89
2022/12/05 00:44:13;;;;;;;8.25;6.13;;;;;;;4.09;100.00;101112.00;4882801;29;20044;-89
2022/12/05 00:46:43;;;;;;;9.75;6.63;;;;;;;4.09;100.00;101109.38;4929113;29;20078;-89
2022/12/05 00:49:13;;;;;;;8.93;6.80;;;;;;;4.08;100.00;101109.47;4885104;29;20042;-89
2022/12/05 00:51:44;;;;;;;7.53;5.90;;;;;;;4.09;100.00;101124.25;4894521;29;20071;-88
2022/12/05 00:54:16;;;;;;;9.93;6.38;;;;;;;4.11;100.00;101121.56;4911757;29;20048;-89
2022/12/05 00:56:46;;;;;;;13.00;7.07;;;;;;;4.09;100.00;101126.88;4916074;29;20035;-88
2022/12/05 00:59:17;;;;;;;9.90;6.20;;;;;;;4.13;100.00;101130.16;4910692;29;20035;-89
2022/12/05 01:01:47;;;;;;;11.52;6.45;;;;;;;4.13;100.00;101145.84;4908215;29;20033;-89
2022/12/05 01:04:20;;;;;;;10.05;5.65;;;;;;;4.13;100.00;101132.78;4907222;29;20048;-89
2022/12/05 01:06:51;;;;;;;12.02;7.50;;;;;;;4.13;100.00;101132.78;4896098;29;20509;-88
2022/12/05 01:09:20;;;;;;;9.98;6.82;;;;;;;4.14;100.00;101131.84;4899629;29;20028;-89
2022/12/05 01:11:49;;;;;;;12.10;7.07;;;;;;;4.14;100.00;101142.31;4891604;29;20106;-89
2022/12/05 01:14:21;;;;;;;16.42;6.78;;;;;;;4.18;100.00;101141.22;4927628;29;20048;-89
2022/12/05 01:16:53;;;;;;;8.48;6.03;;;;;;;4.17;100.00;101136.91;4898475;29;20163;-89
2022/12/05 01:19:26;;;;;;;9.68;6.72;;;;;;;4.16;100.00;101143.91;4884226;29;20074;-89
2022/12/05 01:21:57;;;;;;;8.68;5.95;;;;;;;4.14;100.00;101145.75;4917381;29;20059;-89
2022/12/05 01:24:28;;;;;;;13.30;6.70;;;;;;;4.14;100.00;101144.94;4923668;29;20486;-89
2022/12/05 01:26:58;;;;;;;11.27;7.88;;;;;;;4.18;100.00;101149.91;4908373;29;20047;-88
2022/12/05 01:29:27;;;;;;;11.05;7.38;;;;;;;4.20;100.00;101144.59;4880421;29;20028;-89
2022/12/05 01:31:55;;;;;;;14.65;7.68;;;;;;;4.21;100.00;101138.44;4915651;29;20035;-89
2022/12/05 01:34:25;;;;;;;9.75;6.78;;;;;;;4.26;100.00;101146.00;4928835;29;20028;-89
2022/12/05 01:36:53;;;;;;;9.25;6.57;;;;;;;4.29;100.00;101146.69;4897406;29;20036;-89
2022/12/05 01:39:21;;;;;;;11.77;7.25;;;;;;;4.28;100.00;101139.78;4915610;29;20103;-89
2022/12/05 01:41:49;;;;;;;8.55;6.10;;;;;;;4.31;100.00;101144.84;4884925;29;20316;-89
2022/12/05 01:44:17;;;;;;;6.65;4.28;;;;;;;4.26;100.00;101143.41;4878035;29;20509;-89
2022/12/05 01:46:48;;;;;;;6.50;4.72;;;;;;;4.27;100.00;101145.94;4877762;29;20043;-89
2022/12/05 01:49:17;;;;;;;8.80;5.82;;;;;;;4.40;100.00;101140.84;4879615;29;20055;-89
2022/12/05 01:51:50;;;;;;;10.18;5.57;;;;;;;4.39;100.00;101133.94;4896521;29;20043;-89
2022/12/05 01:54:21;;;;;;;8.73;6.20;;;;;;;4.39;100.00;101138.31;4908770;29;20040;-89
2022/12/05 01:57:04;;;;;;;13.60;6.13;;;;;;;4.48;100.00;101137.81;4881257;29;20095;-89
2022/12/05 01:59:39;;;;;;;9.25;5.63;;;;;;;4.50;100.00;101138.56;4914433;29;20400;-89
2022/12/05 02:02:09;;;;;;;13.27;6.97;;;;;;;4.48;100.00;101137.81;4907389;29;20043;-89
2022/12/05 02:04:51;;;;;;;8.63;5.57;;;;;;;4.49;100.00;101143.88;4888944;29;20036;-89
2022/12/05 02:07:22;;;;;;;7.20;5.88;;;;;;;4.47;100.00;101146.59;4911094;29;20040;-89
2022/12/05 02:09:51;;;;;;;7.43;6.10;;;;;;;4.42;100.00;101139.00;4880340;29;20032;-89
2022/12/05 02:12:21;;;;;;;8.48;6.65;;;;;;;4.40;100.00;101142.63;4887786;29;20045;-92
2022/12/05 02:15:15;;;;;;;10.43;6.60;;;;;;;4.37;100.00;101143.66;4889819;29;20037;-94
2022/12/05 02:17:58;;;;;;;8.63;5.72;;;;;;;4.31;100.00;101141.38;4888245;29;20044;-89
2022/12/05 02:20:52;;;;;;;8.70;5.63;;;;;;;4.28;100.00;101133.69;4890067;29;20037;-89
2022/12/05 02:23:59;;;;;;;9.50;5.85;;;;;;;4.25;100.00;101139.97;4899128;29;20040;-89
2022/12/05 02:26:59;;;;;;;8.60;5.22;;;;;;;4.20;100.00;101145.41;4874268;29;20047;-89
2022/12/05 02:29:54;;;;;;;8.65;4.82;;;;;;;4.16;100.00;101145.69;4885149;29;20131;-89
2022/12/05 02:32:37;;;;;;;8.02;5.85;;;;;;;4.17;100.00;101145.59;4894763;29;20060;-89
2022/12/05 02:35:32;;;;;;;9.25;5.50;;;;;;;4.18;100.00;101156.91;4868594;29;20052;-89
2022/12/05 02:38:40;;;;;;;7.90;4.80;;;;;;;4.19;100.00;101153.34;4880251;29;20485;-88
2022/12/05 02:41:40;;;;;;;9.57;5.60;;;;;;;4.19;100.00;101145.50;4868743;29;20028;-89
2022/12/05 02:44:21;;;;;;;9.95;5.60;;;;;;;4.22;100.00;101147.97;4910978;29;20075;-89
2022/12/05 02:46:52;;;;;;;9.00;5.47;;;;;;;4.22;100.00;101151.41;4880686;29;20130;-89
2022/12/05 02:49:30;;;;;;;10.38;5.72;;;;;;;4.27;100.00;101151.16;4921978;29;20444;-89
2022/12/05 02:52:02;;;;;;;14.18;7.25;;;;;;;4.28;100.00;101154.63;4926225;29;20099;-89
2022/12/05 02:54:38;;;;;;;9.77;5.85;;;;;;;4.27;100.00;101164.25;4909970;29;20040;-89
2022/12/05 02:57:11;;;;;;;7.35;5.47;;;;;;;4.26;100.00;101159.97;4897338;29;20052;-90
2022/12/05 02:59:40;;;;;;;13.57;6.53;;;;;;;4.25;100.00;101166.13;4898859;29;20040;-89
2022/12/05 03:02:22;;;;;;;14.07;6.50;;;;;;;4.27;100.00;101166.88;4910484;29;20028;-89
2022/12/05 03:04:51;;;;;;;15.20;6.18;;;;;;;4.27;100.00;101168.66;4893565;29;20055;-89
2022/12/05 03:07:23;;;;;;;9.32;5.72;;;;;;;4.27;100.00;101166.03;4888638;29;20036;-89
2022/12/05 03:10:01;;;;;;;9.55;5.93;;;;;;;4.28;100.00;101165.09;4906618;29;20035;-89
2022/12/05 03:12:38;;;;;;;14.68;7.43;;;;;;;4.28;100.00;101168.56;4928923;29;20083;-89
2022/12/05 03:15:09;;;;;;;;;;;;;;;4.23;100.00;101178.44;4902994;29;20392;-89
2022/12/05 03:18:05;;;;;;;9.23;5.70;;;;;;;4.26;100.00;101183.50;4926188;29;19925;-89
2022/12/05 03:20:40;;;;;;;11.50;6.63;;;;;;;4.25;100.00;101173.13;4871226;29;20040;-89
2022/12/05 03:23:15;;;;;;;8.67;6.37;;;;;;;4.25;100.00;101180.97;4882961;29;20043;-89
2022/12/05 03:26:13;;;;;;;13.35;6.35;;;;;;;4.24;100.00;101182.75;4918564;29;20482;-89
2022/12/05 03:29:17;;;;;;;10.27;6.78;;;;;;;4.26;100.00;101182.66;4909649;29;20039;-89
2022/12/05 03:31:52;;;;;;;13.77;7.10;;;;;;;4.26;100.00;101178.28;4875275;29;20036;-89
2022/12/05 03:34:41;;;;;;;11.70;7.13;;;;;;;4.27;100.00;101187.81;4883007;29;20036;-89
2022/12/05 03:37:18;;;;;;;12.15;7.35;;;;;;;4.26;100.00;101188.75;4893062;29;20094;-89
2022/12/05 03:40:00;;;;;;;15.50;7.93;;;;;;;4.27;100.00;101198.28;4901514;29;20044;-89
2022/12/05 03:42:35;;;;;;;12.52;6.90;;;;;;;4.28;100.00;101192.13;4878894;29;20080;-90
2022/12/05 03:45:19;;;;;;;13.48;8.27;;;;;;;4.28;100.00;101188.66;4891199;29;20041;-89
2022/12/05 03:47:59;;;;;;;10.18;6.35;;;;;;;4.31;100.00;101201.56;4900964;29;20035;-89
2022/12/05 03:50:28;;;;;;;12.05;7.45;;;;;;;4.28;100.00;101202.59;4909778;29;20043;-89
2022/12/05 03:53:08;;;;;;;13.27;7.85;;;;;;;4.30;100.00;101197.28;4891328;29;20039;-89
2022/12/05 03:55:41;;;;;;;14.68;7.40;;;;;;;4.27;100.00;101206.13;4880871;29;20074;-88
2022/12/05 03:58:18;;;;;;;15.60;8.30;;;;;;;4.31;100.00;101202.44;4877192;29;20508;-88
2022/12/05 04:00:50;;;;;;;13.73;7.70;;;;;;;4.32;100.00;101203.25;4896825;29;20434;-89
2022/12/05 04:03:37;;;;;;;15.10;8.23;;;;;;;4.33;100.00;101205.78;4924070;29;20039;-89
2022/12/05 04:06:18;;;;;;;13.98;8.98;;;;;;;4.37;100.00;101195.16;4920209;29;20048;-89
2022/12/05 04:08:52;;;;;;;18.17;8.05;;;;;;;4.38;100.00;101196.84;4898827;29;20043;-89
2022/12/05 04:11:24;;;;;;;15.23;8.43;;;;;;;4.40;100.00;101198.44;4905557;29;20036;-89
2022/12/05 04:13:58;;;;;;;13.98;7.88;;;;;;;4.41;100.00;101207.16;4908681;29;20119;-89
2022/12/05 04:21:36;;;;;;;16.15;8.70;;;;;;;4.41;100.00;101209.78;4911193;29;20082;-89
2022/12/05 04:22:24;;;;;;;10.10;7.57;;;;;;;4.38;100.00;101208.16;4906845;29;20049;-89
2022/12/05 04:28:14;;;;;;;15.77;8.55;;;;;;;4.27;100.00;101213.97;4880095;29;20437;-89
2022/12/05 04:31:06;;;;;;;13.18;7.72;;;;;;;4.20;100.00;101210.84;4902744;29;20412;-89
2022/12/05 04:33:44;;;;;;;16.05;7.47;;;;;;;4.16;100.00;101218.94;4909785;29;20485;-89
2022/12/05 04:36:34;;;;;;;10.98;7.13;;;;;;;4.09;100.00;101216.66;4909636;29;20514;-89
2022/12/05 04:39:28;;;;;;;14.30;7.47;;;;;;;4.05;100.00;101211.69;4904682;29;20482;-89
2022/12/05 04:42:02;;;;;;;14.68;7.60;;;;;;;4.09;100.00;101218.44;4912392;29;20489;-90
2022/12/05 04:44:45;;;;;;;18.30;7.43;;;;;;;4.09;100.00;101221.91;4899250;29;20524;-90
2022/12/05 04:47:19;;;;;;;13.60;7.68;;;;;;;4.13;100.00;101225.19;4908716;29;20032;-88
2022/12/05 04:49:50;;;;;;;16.50;8.10;;;;;;;4.16;100.00;101226.78;4882759;29;20035;-90
2022/12/05 04:52:21;;;;;;;15.48;7.38;;;;;;;4.13;100.00;101230.44;4918850;29;20109;-89
2022/12/05 04:55:03;;;;;;;11.07;6.63;;;;;;;4.12;100.00;101227.91;4881377;29;20043;-89
2022/12/05 04:58:02;;;;;;;14.00;6.88;;;;;;;4.13;100.00;101224.34;4909182;29;20040;-89
2022/12/05 05:00:31;;;;;;;13.55;7.40;;;;;;;4.14;100.00;101226.06;4873844;29;20044;-90
2022/12/05 05:03:07;;;;;;;9.55;6.72;;;;;;;4.16;100.00;101219.78;4875166;29;20406;-90
2022/12/05 05:05:37;;;;;;;12.20;7.25;;;;;;;4.14;100.00;101226.06;4884140;29;20478;-89
2022/12/05 05:08:18;;;;;;;15.93;7.47;;;;;;;4.20;100.00;101236.19;4882320;29;20028;-89
2022/12/05 05:11:01;;;;;;;12.60;7.03;;;;;;;4.22;100.00;101240.41;4896319;29;20059;-90
2022/12/05 05:13:31;;;;;;;8.07;5.18;;;;;;;4.20;100.00;101239.63;4877160;29;20040;-90
2022/12/05 05:16:01;;;;;;;8.15;5.80;;;;;;;4.25;100.00;101246.41;4896870;29;20492;-89
2022/12/05 05:18:30;;;;;;;10.60;6.20;;;;;;;4.25;100.00;101246.41;4896447;29;20099;-89
2022/12/05 05:21:00;;;;;;;12.57;6.63;;;;;;;4.25;100.00;101249.03;4868892;29;20087;-89
2022/12/05 05:23:29;;;;;;;11.15;6.10;;;;;;;4.26;100.00;101254.16;4914059;29;20040;-89
2022/12/05 05:25:57;;;;;;;12.10;6.63;;;;;;;4.21;100.00;101256.19;4874888;29;20111;-90
2022/12/05 05:28:28;;;;;;;9.13;5.47;;;;;;;4.21;100.00;101256.19;4906221;29;20043;-90
2022/12/05 05:31:03;;;;;;;10.07;5.85;;;;;;;4.22;100.00;101263.13;4894470;29;20087;-89
2022/12/05 05:33:33;;;;;;;8.20;5.10;;;;;;;4.18;100.00;101259.81;4920637;29;20457;-89
2022/12/05 05:36:13;;;;;;;11.80;6.82;;;;;;;4.18;100.00;101266.81;4866164;29;20040;-89
2022/12/05 05:38:44;;;;;;;9.80;6.07;;;;;;;4.15;100.00;101261.75;4925994;29;20119;-89
2022/12/05 05:41:15;;;;;;;17.40;6.93;;;;;;;4.17;100.00;101267.75;4877701;29;20040;-89
2022/12/05 05:43:46;;;;;;;15.90;6.85;;;;;;;4.20;100.00;101259.75;4910296;29;20085;-90
2022/12/05 05:46:18;;;;;;;14.60;7.18;;;;;;;4.23;100.00;101256.94;4893019;29;20119;-94
2022/12/05 05:48:47;;;;;;;10.43;7.10;;;;;;;4.22;100.00;101247.44;4834852;29;20040;-94
2022/12/05 05:51:17;;;;;;;12.15;7.25;;;;;;;4.21;100.00;101251.81;4912551;29;20043;-89
2022/12/05 05:53:45;;;;;;;10.57;6.50;;;;;;;4.21;100.00;101258.78;4852558;29;20135;-90
2022/12/05 05:56:16;;;;;;;11.35;7.03;;;;;;;4.23;100.00;101256.94;4909313;29;20044;-90
2022/12/05 05:58:47;;;;;;;14.57;7.03;;;;;;;4.21;100.00;101266.66;4879920;29;20044;-89
2022/12/05 06:01:21;;;;;;;13.85;6.63;;;;;;;4.17;100.00;101259.91;4909403;29;20124;-89
2022/12/05 06:03:50;;;;;;;13.10;6.90;;;;;;;4.15;100.00;101262.59;4885982;29;20047;-89
2022/12/05 06:06:18;;;;;;;18.33;7.05;;;;;;;4.16;100.00;101263.44;4894505;29;20024;-89
2022/12/05 06:08:47;;;;;;;15.75;7.03;;;;;;;4.15;100.00;101260.00;4868257;29;20039;-89
2022/12/05 06:11:17;;;;;;;12.52;6.22;;;;;;;4.11;100.00;101271.53;4862953;29;20083;-89
2022/12/05 06:13:45;;;;;;;11.88;7.10;;;;;;;4.02;100.00;101270.25;4909610;29;20036;-89
2022/12/05 06:16:15;;;;;;;10.48;5.75;;;;;;;3.99;100.00;101270.41;4893138;29;20142;-89
2022/12/05 06:18:44;;;;;;;13.75;6.60;;;;;;;3.94;100.00;101283.72;4894944;29;20039;-89
2022/12/05 06:21:11;;;;;;;9.85;6.47;;;;;;;3.92;100.00;101272.50;4911094;29;20048;-90
2022/12/05 06:23:40;;;;;;;10.45;6.13;;;;;;;3.87;100.00;101282.34;4896292;29;20059;-90
2022/12/05 06:26:14;;;;;;;11.20;6.57;;;;;;;3.85;100.00;101286.84;4899371;29;20039;-89
2022/12/05 06:28:43;;;;;;;15.57;7.03;;;;;;;3.76;100.00;101287.31;4895928;29;20410;-89
2022/12/05 06:31:18;;;;;;;11.93;7.30;;;;;;;3.77;100.00;101282.00;4913426;29;20028;-90
2022/12/05 06:33:47;;;;;;;7.80;5.78;;;;;;;3.73;100.00;101296.13;4870272;29;20072;-89
2022/12/05 06:36:17;;;;;;;11.70;7.30;;;;;;;3.71;100.00;101290.16;4881560;29;20063;-89
2022/12/05 06:38:46;;;;;;;12.63;7.32;;;;;;;3.67;100.00;101283.38;4909238;29;20126;-90
2022/12/05 06:41:16;;;;;;;10.30;6.78;;;;;;;3.69;100.00;101292.84;4881255;29;20412;-89
2022/12/05 06:43:44;;;;;;;15.75;8.00;;;;;;;3.67;100.00;101289.47;4910600;29;20079;-89
2022/12/05 06:46:15;;;;;;;13.55;6.97;;;;;;;3.70;100.00;101289.31;4882700;29;20032;-89
2022/12/05 06:48:45;;;;;;;16.70;6.32;;;;;;;3.69;100.00;101289.38;4881599;29;20127;-89
2022/12/05 06:51:16;;;;;;;16.10;6.95;;;;;;;3.69;100.00;101297.22;4865462;29;20042;-89
2022/12/05 06:53:45;;;;;;;11.73;6.22;;;;;;;3.68;100.00;101299.00;4883848;29;20416;-90
2022/12/05 06:56:16;;;;;;;11.18;6.25;;;;;;;3.66;100.00;101306.09;4912313;29;20493;-90
2022/12/05 06:58:44;;;;;;;14.43;5.88;;;;;;;3.63;100.00;101306.22;4899379;29;20051;-90
2022/12/05 07:04:00;;;;;;;9.07;6.35;;;;;;;3.60;100.00;101302.00;4876271;29;20096;-89
2022/12/05 07:06:30;;;;;;;10.73;7.13;;;;;;;3.63;100.00;101308.81;4897320;29;20032;-90
2022/12/05 07:08:59;;;;;;;8.13;5.18;;;;;;;3.63;100.00;101308.81;4897223;29;20083;-90
2022/12/05 07:11:27;;;;;;;13.35;7.35;;;;;;;3.61;100.00;101315.94;4867081;29;20112;-90
2022/12/05 07:13:56;;;;;;;13.57;6.50;;;;;;;3.64;100.00;101315.78;4923955;29;20036;-90
2022/12/05 07:16:23;;;;;;;13.30;6.57;;;;;;;3.62;100.00;101324.59;4894724;29;20102;-94
2022/12/05 07:18:52;;;;;;;13.15;6.90;;;;;;;3.63;100.00;101329.75;4901622;29;20131;-94
2022/12/05 07:21:21;;;;;;;12.93;6.78;;;;;;;3.63;100.00;101314.06;4898323;29;20493;-89
2022/12/05 07:23:49;;;;;;;11.18;6.43;;;;;;;3.65;100.00;101317.44;4915908;29;20449;-89
2022/12/05 07:26:20;;;;;;;11.88;6.57;;;;;;;3.68;100.00;101321.69;4897139;29;20027;-90
2022/12/05 07:28:52;;;;;;;12.25;5.72;;;;;;;3.70;100.00;101328.53;4890032;29;20051;-89
2022/12/05 07:31:24;;;;;;;12.00;6.90;;;;;;;3.77;100.00;101329.06;4898832;29;20036;-89
2022/12/05 07:33:54;;;;;;;10.90;6.18;;;;;;;3.79;100.00;101329.00;4882094;29;20035;-89
2022/12/05 07:36:23;;;;;;;10.75;6.20;;;;;;;3.82;100.00;101327.03;4901529;29;20486;-89
2022/12/05 07:38:56;;;;;;;11.38;6.60;;;;;;;3.84;100.00;101332.19;4887998;29;20113;-89
2022/12/05 07:41:29;;;;;;;11.43;6.57;;;;;;;3.82;100.00;101321.81;4927529;29;20111;-89
2022/12/05 07:43:59;;;;;;;11.05;6.45;;;;;;;3.82;100.00;101334.06;4895672;29;20517;-89
2022/12/05 07:46:27;;;;;;;13.98;5.85;;;;;;;3.86;100.00;101335.59;4896470;29;20032;-90
2022/12/05 07:48:55;;;;;;;10.02;5.95;;;;;;;3.87;100.00;101334.66;4883614;29;20485;-90
2022/12/05 07:51:25;;;;;;;12.73;6.13;;;;;;;3.90;100.00;101333.69;4896842;29;20465;-90
2022/12/05 07:53:54;;;;;;;10.38;6.30;;;;;;;3.95;100.00;101337.72;4893039;29;20119;-90
2022/12/05 07:56:22;;;;;;;9.68;6.03;;;;;;;3.94;100.00;101349.13;4889056;29;20040;-89
2022/12/05 07:58:51;;;;;;;14.00;5.90;;;;;;;4.02;100.00;101345.25;4891963;29;20368;-89
2022/12/05 08:01:22;;;;;;;11.30;6.45;;;;;;;4.04;100.00;101357.34;4879615;29;20034;-89
2022/12/05 08:03:54;;;;;;;10.77;6.03;;;;;;;4.09;100.00;101357.13;4908198;29;20047;-89
2022/12/05 08:06:27;;;;;;;7.90;5.07;;;;;;;4.15;100.00;101367.28;4912619;29;20047;-90
2022/12/05 08:08:57;;;;;;;9.50;6.10;;;;;;;4.18;100.00;101364.50;4896229;29;20051;-89
2022/12/05 08:11:34;;;;;;;12.68;6.88;;;;;;;4.22;100.00;101370.41;4879787;29;20160;-89
2022/12/05 08:14:07;;;;;;;9.70;5.57;;;;;;;4.24;100.00;101368.53;4896424;29;20051;-89
2022/12/05 08:16:37;;;;;;;11.10;5.15;;;;;;;4.27;100.00;101365.78;4910174;29;20068;-89
2022/12/05 08:19:12;;;;;;;10.38;5.18;;;;;;;4.32;100.00;101373.38;4880914;29;20044;-91
2022/12/05 08:21:42;;;;;;;8.48;4.00;;;;;;;4.34;100.00;101375.00;4893795;29;20047;-91
2022/12/05 08:24:12;;;;;;;6.93;4.38;;;;;;;4.38;100.00;101378.28;4911442;29;20043;-90
2022/12/05 08:26:41;;;;;;;13.63;5.43;;;;;;;4.40;100.00;101384.31;4911372;29;20040;-90
2022/12/05 08:29:14;;;;;;;13.65;5.63;;;;;;;4.43;100.00;101392.00;4918681;29;20091;-91
2022/12/05 08:31:47;;;;;;;13.70;5.32;;;;;;;4.45;100.00;101397.16;4879634;29;20075;-91
2022/12/05 08:34:19;;;;;;;12.70;5.22;;;;;;;4.47;100.00;101401.38;4879206;29;20032;-91
2022/12/05 08:36:49;;;;;;;9.73;5.10;;;;;;;4.51;100.00;101398.63;4880828;29;20171;-91
2022/12/05 08:39:19;;;;;;;9.57;4.88;;;;;;;4.55;100.00;101397.50;4879908;29;20039;-91
2022/12/05 08:41:50;;;;;;;7.22;5.05;;;;;;;4.59;100.00;101404.25;4923450;29;20862;-91
2022/12/05 08:44:20;;;;;;;9.70;5.10;;;;;;;4.62;100.00;101392.81;4880914;29;20071;-91
2022/12/05 08:46:50;;;;;;;8.02;4.85;;;;;;;4.64;100.00;101398.78;4893987;29;20470;-91
2022/12/05 08:49:20;;;;;;;12.10;4.65;;;;;;;4.63;100.00;101397.09;4911454;29;20079;-91
2022/12/05 08:51:50;;;;;;;10.63;4.53;;;;;;;4.63;100.00;101410.19;4893160;29;20127;-91
2022/12/05 08:54:20;;;;;;;12.20;4.93;;;;;;;4.62;100.00;101414.56;4871729;29;20028;-91
2022/12/05 08:56:53;;;;;;;8.15;4.47;;;;;;;4.62;100.00;101403.28;4880060;29;20036;-90
2022/12/05 08:59:23;;;;;;;9.88;4.50;;;;;;;4.58;100.00;101403.44;4904667;29;20040;-92
2022/12/05 09:01:52;;;;;;;5.68;3.50;;;;;;;4.57;100.00;101411.38;4881570;29;20568;-91
2022/12/05 09:04:22;;;;;;;9.57;3.80;;;;;;;4.55;100.00;101408.84;4866910;29;20039;-91
2022/12/05 09:06:51;;;;;;;6.03;4.03;;;;;;;4.57;100.00;101412.19;4893127;29;20048;-91
2022/12/05 09:09:19;;;;;;;10.73;4.53;;;;;;;4.58;100.00;101413.06;4874720;29;20028;-91
2022/12/05 09:11:49;;;;;;;10.57;4.13;;;;;;;4.61;100.00;101417.28;4896037;29;20036;-91
2022/12/05 09:14:17;;;;;;;10.35;4.90;;;;;;;4.62;100.00;101421.59;4897469;29;20046;-91
2022/12/05 09:16:46;;;;;;;10.88;4.40;;;;;;;4.64;100.00;101428.44;4885866;29;20052;-91
2022/12/05 09:19:19;;;;;;;14.48;4.30;;;;;;;4.67;100.00;101406.47;4881669;29;20032;-91
2022/12/05 09:21:49;;;;;;;8.93;4.25;;;;;;;4.70;100.00;101416.78;4896926;29;20035;-91
2022/12/05 09:24:19;;;;;;;8.27;4.40;;;;;;;4.72;100.00;101412.31;4880906;29;20490;-91
2022/12/05 09:26:48;;;;;;;6.97;3.78;;;;;;;4.74;100.00;101407.84;4911996;29;20067;-91
2022/12/05 09:29:16;;;;;;;5.65;3.95;;;;;;;4.70;100.00;101415.03;4884710;29;20111;-91
2022/12/05 09:31:50;;;;;;;6.88;3.22;;;;;;;4.78;100.00;101419.03;4906591;29;20609;-91
2022/12/05 09:34:20;;;;;;;8.10;4.07;;;;;;;4.77;100.00;101422.56;4879280;29;20040;-91
2022/12/05 09:36:50;;;;;;;6.60;3.80;;;;;;;4.79;100.00;101426.81;4897069;29;20047;-91
2022/12/05 09:39:20;;;;;;;8.45;3.95;;;;;;;4.78;100.00;101417.22;4892878;29;20068;-90
2022/12/05 09:42:08;;;;;;;8.82;4.35;;;;;;;4.86;100.00;101426.47;4892869;29;20446;-91
2022/12/05 09:45:16;;;;;;;9.43;4.38;;;;;;;4.88;100.00;101433.31;4926020;29;20110;-91
2022/12/05 09:48:01;;;;;;;4.40;3.60;;;;;;;4.91;100.00;101432.28;4892974;29;20055;-91
2022/12/05 09:50:40;;;;;;;9.48;3.28;;;;;;;4.95;100.00;101426.78;4893052;29;20040;-91
2022/12/05 09:53:26;;;;;;;3.83;2.25;;;;;;;4.98;100.00;101431.03;4881554;29;20035;-91
2022/12/05 09:56:02;;;;;;;5.72;3.55;;;;;;;5.03;100.00;101433.41;4883749;29;20051;-91
2022/12/05 09:58:52;;;;;;;6.45;3.50;;;;;;;5.12;100.00;101442.53;4914352;29;20032;-91
2022/12/05 10:01:44;;;;;;;5.38;2.63;;;;;;;5.18;100.00;101442.19;4933778;29;20048;-91
2022/12/05 10:04:33;;;;;;;6.70;3.50;;;;;;;5.18;100.00;101440.44;4899889;29;20497;-91
2022/12/05 10:07:24;;;;;;;5.47;3.13;;;;;;;5.22;100.00;101435.88;4883887;29;20389;-90
2022/12/05 10:10:12;;;;;;;8.55;3.88;;;;;;;5.25;100.00;101438.31;4900391;29;20130;-90
2022/12/05 10:13:03;;;;;;;7.82;3.15;;;;;;;5.24;100.00;101436.59;4885503;29;20371;-90
2022/12/05 10:15:52;;;;;;;7.55;3.72;;;;;;;5.26;100.00;101433.91;4930219;29;20452;-91
2022/12/05 10:18:40;;;;;;;8.75;3.28;;;;;;;5.22;100.00;101425.38;4904142;29;20083;-90
2022/12/05 10:21:24;;;;;;;7.93;3.80;;;;;;;5.24;100.00;101434.00;4902435;29;20050;-91
2022/12/05 10:24:13;;;;;;;6.85;2.30;;;;;;;5.25;100.00;101433.09;4922519;29;20891;-91
2022/12/05 10:26:53;;;;;;;4.63;2.65;;;;;;;5.31;100.00;101427.50;4928616;29;20123;-91
2022/12/05 10:29:35;;;;;;;11.13;4.05;;;;;;;5.35;100.00;101433.41;4930982;29;20032;-91
2022/12/05 10:32:23;;;;;;;6.43;2.33;;;;;;;5.39;100.00;101427.06;4884152;29;20063;-91
2022/12/05 10:34:59;;;;;;;6.75;3.28;;;;;;;5.50;100.00;101436.09;4863864;29;20036;-90
2022/12/05 10:37:30;;;;;;;10.82;3.20;;;;;;;5.52;100.00;101436.84;4884922;29;20032;-91
2022/12/05 10:40:00;;;;;;;6.00;2.58;;;;;;;5.53;100.00;101438.53;4886386;29;20114;-91
2022/12/05 10:42:34;;;;;;;7.25;3.05;;;;;;;5.53;100.00;101431.53;4915444;29;20044;-89
2022/12/05 10:45:08;;;;;;;9.82;3.13;;;;;;;5.55;100.00;101428.81;4882043;29;20127;-91
2022/12/05 10:47:37;;;;;;;5.03;2.20;;;;;;;5.55;100.00;101432.28;4910462;29;20039;-90
2022/12/05 10:50:24;;;;;;;5.82;2.47;;;;;;;5.55;100.00;101434.91;4883865;29;20044;-91
2022/12/05 10:52:56;;;;;;;4.32;2.45;;;;;;;5.56;100.00;101436.59;4883800;29;20138;-91
2022/12/05 10:55:31;;;;;;;6.40;2.72;;;;;;;5.60;100.00;101434.66;4883238;29;20028;-90
2022/12/05 10:58:15;;;;;;;6.68;2.67;;;;;;;5.60;100.00;101434.66;4912394;29;20485;-91
2022/12/05 11:00:50;;;;;;;7.65;2.83;;;;;;;5.63;100.00;101421.38;4896130;29;20416;-91
2022/12/05 11:03:31;;;;;;;5.28;2.10;;;;;;;5.65;100.00;101427.38;4882198;29;20446;-90
2022/12/05 11:06:16;;;;;;;4.25;1.90;;;;;;;5.67;100.00;101429.91;4903192;29;20131;-91
2022/12/05 11:08:56;;;;;;;7.25;2.40;;;;;;;5.67;100.00;101433.38;4905107;29;20036;-90
2022/12/05 11:11:28;;;;;;;5.15;2.40;;;;;;;5.65;100.00;101430.00;4912610;29;20039;-91
2022/12/05 11:14:02;;;;;;;4.88;1.77;;;;;;;5.65;100.00;101424.75;4906855;29;20040;-91
2022/12/05 11:16:33;;;;;;;6.68;1.77;;;;;;;5.66;100.00;101425.59;4890307;29;20040;-91
2022/12/05 11:19:30;;;;;;;3.35;1.58;;;;;;;5.66;100.00;101430.81;4897034;29;20052;-90
2022/12/05 11:21:58;;;;;;;5.65;1.77;;;;;;;5.64;100.00;101424.84;4897966;29;20047;-91
2022/12/05 11:24:26;;;;;;;2.53;1.40;;;;;;;5.66;100.00;101430.81;4915714;29;20075;-91
2022/12/05 11:26:54;;;;;;;7.22;1.25;;;;;;;5.66;100.00;101425.59;4929391;29;20412;-90
2022/12/05 11:29:37;;;;;;;2.55;1.00;;;;;;;5.68;100.00;101421.09;4882404;29;20102;-91
2022/12/05 11:32:18;;;;;;;4.15;1.00;;;;;;;5.72;100.00;101422.59;4900296;29;20051;-91
2022/12/05 11:35:07;;;;;;;5.32;1.40;;;;;;;5.80;100.00;101424.78;4928800;29;20046;-90
2022/12/05 11:38:03;;;;;;;4.18;1.23;;;;;;;5.81;100.00;101418.63;4913662;29;20501;-90
2022/12/05 11:40:53;;;;;;;7.77;1.70;;;;;;;5.83;100.00;101412.34;4910954;29;20396;-90
2022/12/05 11:43:37;;;;;;;7.10;1.30;;;;;;;5.91;100.00;101429.44;4883720;29;20052;-90
2022/12/05 11:46:26;;;;;;;8.57;1.90;;;;;;;5.98;100.00;101416.78;4903755;29;20031;-91
2022/12/05 11:49:14;;;;;;;2.70;2.28;;;;;;;6.07;100.00;101419.75;4890248;29;20039;-91
2022/12/05 11:51:47;;;;;;;6.00;2.85;;;;;;;6.14;100.00;101412.34;4858055;29;20048;-91
2022/12/05 11:54:36;;;;;;;4.72;2.53;;;;;;;6.25;100.00;101416.09;4890398;29;20059;-91
2022/12/05 11:57:32;;;;;;;9.48;2.85;;;;;;;6.39;100.00;101413.50;4896005;29;20111;-90
2022/12/05 12:00:06;;;;;;;5.80;2.42;;;;;;;6.53;100.00;101410.03;4869018;29;20041;-91
2022/12/05 12:02:48;;;;;;;6.05;2.28;;;;;;;6.63;100.00;101407.69;4876865;29;20048;-92
2022/12/05 12:05:20;;;;;;;5.47;1.85;;;;;;;6.62;100.00;101407.78;4884429;29;20040;-91
2022/12/05 12:08:09;;;;;;;3.15;1.27;;;;;;;6.66;100.00;101406.66;4897619;29;20079;-91